Time;durP1;ratioP1;P1;durP2;ratioP2;P2;SDS_P1;SDS_P2;PMS_P1;PMS_P2;Temp;Humidity;BMP_temperature;BMP_pressure;BME280_temperature;BME280_humidity;BME280_pressure;Samples;Min_cycle;Max_cycle;Signal;HPM_P1;HPM_P2
2022/12/29 00:01:48;;;;;;;;;0.00;0.00;;;;;13.06;79.72;100247.13;5102634;27;46281;-59
2022/12/29 00:04:14;;;;;;;;;0.00;0.00;;;;;13.04;79.80;100249.03;5102749;27;45349;-59
2022/12/29 00:06:40;;;;;;;;;0.00;0.00;;;;;13.04;79.77;100235.63;5084251;27;45342;-59
2022/12/29 00:09:05;;;;;;;;;0.25;0.25;;;;;13.05;79.93;100229.34;5117105;27;45699;-59
2022/12/29 00:11:31;;;;;;;;;0.00;0.00;;;;;13.09;79.85;100240.75;5123502;27;45402;-59
2022/12/29 00:16:42;;;;;;;;;0.00;0.00;;;;;13.12;79.66;100225.38;5123352;27;45286;-60
2022/12/29 00:35:07;;;;;;;;;0.00;0.00;;;;;13.11;79.74;100229.03;5123357;27;45575;-59
2022/12/29 00:35:52;;;;;;;;;0.00;0.00;;;;;13.12;80.13;100208.47;5070368;27;45369;-59
2022/12/29 00:46:29;;;;;;;;;0.00;0.00;;;;;13.16;80.50;100196.63;5102049;27;45322;-59
2022/12/29 00:51:39;;;;;;;;;1.75;1.75;;;;;13.14;80.75;100209.25;5101947;27;45403;-59
2022/12/29 00:54:04;;;;;;;;;2.50;1.75;;;;;13.11;80.89;100196.00;5082707;27;47077;-59
2022/12/29 00:56:30;;;;;;;;;1.00;0.00;;;;;13.11;80.85;100210.28;5083839;27;45359;-59
2022/12/29 00:59:00;;;;;;;;;1.50;1.50;;;;;13.13;81.00;100211.06;5102081;27;45492;-60
2022/12/29 01:01:25;;;;;;;;;2.50;1.50;;;;;13.12;81.07;100221.84;5101697;27;45331;-59
2022/12/29 01:03:50;;;;;;;;;0.75;0.75;;;;;13.10;81.39;100199.63;5101821;27;45280;-59
2022/12/29 01:06:16;;;;;;;;;1.00;1.00;;;;;13.09;81.37;100192.53;5101336;27;45375;-59
2022/12/29 01:08:41;;;;;;;;;0.50;0.50;;;;;13.14;81.31;100207.41;5113010;27;45398;-59
2022/12/29 01:11:12;;;;;;;;;0.50;0.00;;;;;13.16;81.43;100207.34;5103705;27;45840;-59
2022/12/29 01:13:38;;;;;;;;;2.75;1.00;;;;;13.19;81.33;100214.38;5122412;27;45454;-59
2022/12/29 01:16:05;;;;;;;;;1.25;0.25;;;;;13.16;81.65;100194.81;5122036;27;45338;-59
2022/12/29 01:18:30;;;;;;;;;0.75;0.75;;;;;13.18;81.33;100196.53;5122524;27;45255;-59
2022/12/29 01:21:03;;;;;;;;;1.00;1.00;;;;;13.18;81.18;100209.94;5122153;27;45363;-59
2022/12/29 01:23:29;;;;;;;;;1.00;1.00;;;;;13.19;81.38;100199.16;5121908;27;47136;-59
2022/12/29 01:25:54;;;;;;;;;2.00;1.00;;;;;13.21;81.16;100199.06;5122185;27;45322;-59
2022/12/29 01:28:20;;;;;;;;;0.00;0.00;;;;;13.23;81.01;100198.06;5103783;27;45350;-59
2022/12/29 01:30:45;;;;;;;;;1.50;1.00;;;;;13.25;81.14;100212.25;5121766;27;45290;-59
2022/12/29 01:33:11;;;;;;;;;0.75;0.75;;;;;13.26;81.22;100205.91;5101254;27;46115;-59
2022/12/29 01:35:36;;;;;;;;;1.00;1.00;;;;;13.28;81.11;100206.72;5101187;27;45290;-59
2022/12/29 01:38:01;;;;;;;;;0.00;0.00;;;;;13.29;80.98;100211.13;5101515;27;45252;-59
2022/12/29 01:40:28;;;;;;;;;0.25;0.25;;;;;13.29;81.02;100202.22;5101188;27;45492;-60
2022/12/29 01:42:53;;;;;;;;;0.00;0.00;;;;;13.28;81.01;100211.19;5101276;27;45461;-59
2022/12/29 01:45:19;;;;;;;;;0.00;0.00;;;;;13.31;81.02;100208.34;5100911;27;45374;-59
2022/12/29 01:47:52;;;;;;;;;0.50;0.00;;;;;13.31;80.98;100219.06;5101363;27;45450;-59
2022/12/29 01:50:32;;;;;;;;;0.00;0.00;;;;;13.29;80.96;100213.78;5101080;27;45410;-59
2022/12/29 01:53:20;;;;;;;;;0.00;0.00;;;;;13.31;80.61;100228.00;5082455;27;49449;-59
2022/12/29 01:55:55;;;;;;;;;0.50;0.00;;;;;13.33;80.70;100231.50;5082030;27;45574;-60
2022/12/29 01:58:24;;;;;;;;;1.25;0.00;;;;;13.32;80.74;100229.75;5101078;27;45481;-59
2022/12/29 02:00:49;;;;;;;;;0.00;0.00;;;;;13.32;80.79;100215.50;5100717;27;45487;-59
2022/12/29 02:03:17;;;;;;;;;1.00;0.00;;;;;13.34;80.72;100211.78;5100829;27;45445;-59
2022/12/29 02:05:49;;;;;;;;;0.00;0.00;;;;;13.37;80.79;100217.94;5100982;27;45439;-59
2022/12/29 02:08:16;;;;;;;;;0.50;0.00;;;;;13.36;80.72;100225.09;5108115;27;45404;-59
2022/12/29 02:10:44;;;;;;;;;0.25;0.25;;;;;13.37;80.93;100234.88;5121406;27;45637;-59
2022/12/29 02:13:09;;;;;;;;;0.00;0.00;;;;;13.37;80.89;100237.56;5121333;27;46161;-59
2022/12/29 02:15:50;;;;;;;;;0.00;0.00;;;;;13.42;80.96;100253.41;5102613;27;45301;-59
2022/12/29 02:18:30;;;;;;;;;1.00;0.00;;;;;13.42;80.81;100258.78;5120736;27;45314;-59
2022/12/29 02:21:01;;;;;;;;;0.00;0.00;;;;;13.41;81.10;100254.34;5121289;27;45298;-59
2022/12/29 02:23:50;;;;;;;;;0.00;0.00;;;;;13.39;80.55;100240.16;5121129;27;46113;-59
2022/12/29 02:26:34;;;;;;;;;0.00;0.00;;;;;13.31;80.18;100235.16;5121311;27;45312;-59
2022/12/29 02:29:11;;;;;;;;;0.00;0.00;;;;;13.26;80.38;100234.53;5121219;27;45300;-59
2022/12/29 02:31:45;;;;;;;;;0.00;0.00;;;;;13.22;80.31;100227.63;5113845;27;45331;-59
2022/12/29 02:34:56;;;;;;;;;0.00;0.00;;;;;13.21;80.34;100232.09;5100236;27;47897;-59
2022/12/29 02:37:34;;;;;;;;;0.00;0.00;;;;;13.17;79.91;100222.47;5115388;27;45409;-59
2022/12/29 02:40:24;;;;;;;;;0.00;0.00;;;;;13.16;79.92;100229.66;5121238;27;45549;-59
2022/12/29 02:43:06;;;;;;;;;0.00;0.00;;;;;13.12;79.92;100217.34;5121063;27;45615;-59
2022/12/29 02:45:37;;;;;;;;;0.00;0.00;;;;;13.11;79.44;100212.97;5120873;27;45505;-59
2022/12/29 02:48:24;;;;;;;;;0.00;0.00;;;;;13.10;79.66;100223.75;5120935;27;45316;-59
2022/12/29 02:50:55;;;;;;;;;0.00;0.00;;;;;13.10;79.62;100207.69;5121094;27;45345;-59
2022/12/29 02:54:40;;;;;;;;;0.00;0.00;;;;;13.08;79.41;100209.53;5120502;27;45457;-60
2022/12/29 02:56:08;;;;;;;;;1.00;0.00;;;;;13.08;79.22;100205.06;5118367;27;46565;-59
2022/12/29 02:58:34;;;;;;;;;0.00;0.00;;;;;13.04;79.26;100213.34;5087657;27;45711;-59
2022/12/29 03:01:28;;;;;;;;;0.00;0.00;;;;;13.02;79.05;100217.91;5100029;27;45282;-59
2022/12/29 03:04:21;;;;;;;;;0.25;0.00;;;;;13.02;79.29;100220.59;5100138;27;45317;-59
2022/12/29 03:06:57;;;;;;;;;0.00;0.00;;;;;13.00;79.05;100214.41;5099904;27;45462;-59
2022/12/29 03:09:54;;;;;;;;;0.00;0.00;;;;;12.93;79.01;100200.47;5117350;27;45313;-59
2022/12/29 03:18:10;;;;;;;;;2.00;0.00;;;;;12.92;78.76;100204.13;5120528;27;45308;-59
2022/12/29 03:20:47;;;;;;;;;0.75;0.00;;;;;12.90;78.45;100206.00;5120467;27;45615;-59
2022/12/29 03:23:13;;;;;;;;;0.00;0.00;;;;;12.86;78.43;100199.91;5120576;27;45567;-60
2022/12/29 03:25:46;;;;;;;;;1.00;0.00;;;;;12.77;78.37;100197.72;5101210;27;45660;-59
2022/12/29 03:28:18;;;;;;;;;0.00;0.00;;;;;12.81;78.53;100210.00;5120426;27;46205;-59
2022/12/29 03:30:45;;;;;;;;;0.75;0.00;;;;;12.77;78.55;100203.94;5124286;27;45595;-59
2022/12/29 03:33:15;;;;;;;;;0.00;0.00;;;;;12.78;78.25;100212.84;5106482;27;45386;-59
2022/12/29 03:35:42;;;;;;;;;0.00;0.00;;;;;12.83;77.79;100217.97;5106563;27;45493;-59
2022/12/29 03:38:16;;;;;;;;;0.00;0.00;;;;;12.82;78.18;100224.28;5106066;27;45483;-59
2022/12/29 03:40:46;;;;;;;;;0.00;0.00;;;;;12.80;77.95;100227.03;5106538;27;45354;-59
2022/12/29 03:43:12;;;;;;;;;0.00;0.00;;;;;12.77;78.03;100220.00;5106570;27;45520;-59
2022/12/29 03:45:38;;;;;;;;;0.00;0.00;;;;;12.79;78.13;100228.81;5087670;27;45484;-59
2022/12/29 03:48:04;;;;;;;;;0.00;0.00;;;;;12.81;78.15;100234.09;5106272;27;45427;-59
2022/12/29 03:50:29;;;;;;;;;0.25;0.00;;;;;12.83;77.72;100228.66;5106253;27;45362;-60
2022/12/29 03:52:55;;;;;;;;;1.00;0.00;;;;;12.81;77.56;100231.41;5106406;27;45349;-60
2022/12/29 03:55:20;;;;;;;;;0.75;0.00;;;;;12.81;77.56;100231.41;5106258;27;45367;-60
2022/12/29 03:57:45;;;;;;;;;0.00;0.00;;;;;12.81;77.67;100226.06;5106000;27;45353;-59
2022/12/29 04:00:11;;;;;;;;;0.00;0.00;;;;;12.84;77.73;100233.09;5105937;27;45304;-60
2022/12/29 04:02:37;;;;;;;;;0.75;0.00;;;;;12.85;77.64;100225.00;5106200;27;45331;-59
2022/12/29 04:05:02;;;;;;;;;0.00;0.00;;;;;12.82;77.65;100218.91;5106226;27;45354;-59
2022/12/29 04:07:28;;;;;;;;;0.00;0.00;;;;;12.82;77.65;100235.00;5106738;27;45601;-59
2022/12/29 04:09:53;;;;;;;;;0.00;0.00;;;;;12.83;77.56;100236.72;5126690;27;45309;-59
2022/12/29 04:12:18;;;;;;;;;0.00;0.00;;;;;12.82;77.57;100238.53;5126735;27;45710;-59
2022/12/29 04:14:44;;;;;;;;;0.00;0.00;;;;;12.82;77.79;100235.84;5126696;27;45467;-59
2022/12/29 04:17:09;;;;;;;;;0.00;0.00;;;;;12.80;77.40;100232.38;5126522;27;45242;-59
2022/12/29 04:19:34;;;;;;;;;0.00;0.00;;;;;12.79;77.43;100228.81;5126678;27;45360;-59
2022/12/29 04:22:00;;;;;;;;;0.00;0.00;;;;;12.85;77.64;100240.19;5126911;27;45641;-59
2022/12/29 04:24:25;;;;;;;;;0.00;0.00;;;;;12.82;77.64;100245.72;5107263;27;45341;-59
2022/12/29 04:26:50;;;;;;;;;0.00;0.00;;;;;12.86;77.61;100258.84;5126409;27;45268;-59
2022/12/29 04:29:16;;;;;;;;;0.00;0.00;;;;;12.82;77.40;100251.06;5126637;27;45290;-60
2022/12/29 04:31:41;;;;;;;;;0.00;0.00;;;;;12.83;77.14;100263.50;5118431;27;45305;-59
2022/12/29 04:34:07;;;;;;;;;0.00;0.00;;;;;12.81;77.31;100260.03;5105570;27;45282;-59
2022/12/29 04:36:32;;;;;;;;;0.50;0.00;;;;;12.83;77.11;100269.75;5105750;27;46079;-59
2022/12/29 04:38:57;;;;;;;;;0.00;0.00;;;;;12.86;77.71;100274.06;5105623;27;45275;-59
2022/12/29 04:41:23;;;;;;;;;0.00;0.00;;;;;12.82;77.42;100262.63;5104205;27;45377;-59
2022/12/29 04:43:49;;;;;;;;;0.00;0.00;;;;;12.83;77.10;100269.75;5102158;27;45377;-59
2022/12/29 04:46:14;;;;;;;;;0.00;0.00;;;;;12.84;77.15;100275.94;5102112;27;45342;-59
2022/12/29 04:48:39;;;;;;;;;0.00;0.00;;;;;12.83;77.36;100269.75;5102186;27;45377;-59
2022/12/29 04:51:05;;;;;;;;;0.00;0.00;;;;;12.86;77.12;100276.75;5084058;27;45347;-59
2022/12/29 04:53:30;;;;;;;;;0.00;0.00;;;;;12.80;77.04;100277.91;5101871;27;45551;-59
2022/12/29 04:55:55;;;;;;;;;1.00;0.00;;;;;12.82;77.14;100281.38;5102052;27;45444;-59
2022/12/29 04:58:21;;;;;;;;;0.00;0.00;;;;;12.79;76.85;100278.84;5101774;27;45386;-59
2022/12/29 05:00:47;;;;;;;;;0.25;0.00;;;;;12.78;77.42;100280.66;5102083;27;45437;-59
2022/12/29 05:03:12;;;;;;;;;0.00;0.00;;;;;12.77;77.06;100289.63;5101779;27;46319;-59
2022/12/29 05:05:37;;;;;;;;;2.00;0.00;;;;;12.76;77.08;100284.34;5101950;27;45540;-59
2022/12/29 05:08:03;;;;;;;;;0.00;0.00;;;;;12.76;77.00;100293.28;5107484;27;45486;-59
2022/12/29 05:10:28;;;;;;;;;0.00;0.00;;;;;12.78;77.06;100304.78;5122620;27;45318;-59
2022/12/29 05:12:54;;;;;;;;;0.00;0.00;;;;;12.79;77.12;100297.59;5122306;27;45297;-59
2022/12/29 05:15:19;;;;;;;;;0.00;0.00;;;;;12.77;77.28;100302.16;5122187;27;45381;-59
2022/12/29 05:17:44;;;;;;;;;0.00;0.00;;;;;12.77;77.27;100304.84;5122274;27;45432;-59
2022/12/29 05:20:10;;;;;;;;;2.00;0.00;;;;;12.78;77.22;100315.50;5122533;27;45498;-59
2022/12/29 05:22:36;;;;;;;;;0.25;0.00;;;;;12.78;76.97;100309.28;5122119;27;45403;-60
2022/12/29 05:25:01;;;;;;;;;0.00;0.00;;;;;12.76;77.00;100297.75;5122268;27;45357;-59
2022/12/29 05:27:27;;;;;;;;;1.00;0.00;;;;;12.74;76.61;100291.59;5102935;27;45361;-59
2022/12/29 05:29:52;;;;;;;;;0.00;0.00;;;;;12.77;76.13;100307.53;5122148;27;45382;-59
2022/12/29 05:32:18;;;;;;;;;0.75;0.00;;;;;12.74;75.82;100302.31;5108665;27;45413;-60
2022/12/29 05:34:43;;;;;;;;;2.50;1.00;;;;;12.71;75.55;100307.81;5101449;27;46251;-61
2022/12/29 05:37:08;;;;;;;;;0.00;0.00;;;;;12.71;75.74;100310.50;5082829;27;45312;-59
2022/12/29 05:39:34;;;;;;;;;1.00;0.00;;;;;12.67;75.42;100324.97;5101710;27;45561;-59
2022/12/29 05:41:59;;;;;;;;;0.00;0.00;;;;;12.66;75.46;100323.22;5101114;27;45362;-59
2022/12/29 05:44:25;;;;;;;;;1.75;0.00;;;;;12.63;75.43;100312.66;5101226;27;45472;-59
2022/12/29 05:46:50;;;;;;;;;0.00;0.00;;;;;12.64;75.30;100312.59;5100949;27;45414;-59
2022/12/29 05:49:16;;;;;;;;;1.00;0.00;;;;;12.60;75.37;100316.38;5101462;27;45415;-59
2022/12/29 05:51:41;;;;;;;;;0.00;0.00;;;;;12.61;75.27;100307.38;5100875;27;45443;-59
2022/12/29 05:54:06;;;;;;;;;0.00;0.00;;;;;12.61;75.00;100318.09;5099752;27;45432;-59
2022/12/29 05:56:32;;;;;;;;;1.25;0.25;;;;;12.57;74.90;100325.41;5082536;27;45643;-59
2022/12/29 05:58:58;;;;;;;;;2.00;0.25;;;;;12.62;75.11;100324.34;5082705;27;45395;-59
2022/12/29 06:01:23;;;;;;;;;0.00;0.00;;;;;12.62;74.69;100337.72;5100780;27;45329;-59
2022/12/29 06:03:48;;;;;;;;;1.75;0.00;;;;;12.57;74.56;100338.78;5100876;27;46017;-59
2022/12/29 06:06:14;;;;;;;;;0.00;0.00;;;;;12.57;74.83;100346.81;5100932;27;45262;-59
2022/12/29 06:08:39;;;;;;;;;0.00;0.00;;;;;12.58;74.53;100355.75;5071641;28;45480;-59
2022/12/29 06:11:05;;;;;;;;;3.00;0.00;;;;;12.60;74.29;100359.22;5115869;27;45476;-59
2022/12/29 06:13:30;;;;;;;;;0.75;0.75;;;;;12.60;74.45;100357.41;5121447;27;45956;-59
2022/12/29 06:15:55;;;;;;;;;3.75;0.00;;;;;12.59;74.18;100352.09;5121031;27;45298;-59
2022/12/29 06:18:21;;;;;;;;;0.00;0.00;;;;;12.58;74.28;100363.78;5121606;27;45351;-59
2022/12/29 06:20:47;;;;;;;;;1.00;0.75;;;;;12.56;74.05;100361.16;5121203;27;45562;-59
2022/12/29 06:23:13;;;;;;;;;0.00;0.00;;;;;12.45;74.30;100342.06;5121019;27;46124;-59
2022/12/29 06:25:38;;;;;;;;;1.00;0.00;;;;;12.52;74.41;100366.72;5121155;27;45413;-59
2022/12/29 06:28:05;;;;;;;;;0.75;0.75;;;;;12.52;74.40;100364.91;5121367;27;45445;-59
2022/12/29 06:30:30;;;;;;;;;0.00;0.00;;;;;12.50;74.58;100365.94;5120741;27;45605;-59
2022/12/29 06:32:56;;;;;;;;;0.00;0.00;;;;;12.52;74.19;100364.91;5102472;27;46142;-59
2022/12/29 06:35:24;;;;;;;;;0.50;0.50;;;;;12.53;73.95;100369.34;5100307;27;45377;-59
2022/12/29 06:37:50;;;;;;;;;2.00;1.00;;;;;12.55;74.63;100388.00;5100535;27;45368;-59
2022/12/29 06:40:16;;;;;;;;;1.75;0.25;;;;;12.49;73.99;100374.91;5100253;27;45468;-60
2022/12/29 06:42:41;;;;;;;;;3.25;0.00;;;;;12.50;74.19;100388.22;5100252;27;46813;-59
2022/12/29 06:45:07;;;;;;;;;3.00;0.00;;;;;12.52;74.44;100397.03;5081767;27;45438;-59
2022/12/29 06:47:33;;;;;;;;;0.00;0.00;;;;;12.53;74.15;100404.16;5100451;27;45444;-59
2022/12/29 06:49:59;;;;;;;;;1.00;0.00;;;;;12.48;74.42;100398.13;5100115;27;45347;-59
2022/12/29 06:52:24;;;;;;;;;3.00;0.00;;;;;12.50;74.58;100408.78;5100080;27;46215;-59
2022/12/29 06:54:50;;;;;;;;;0.00;0.00;;;;;12.49;74.52;100413.25;5100043;27;45467;-59
2022/12/29 06:57:15;;;;;;;;;3.00;0.25;;;;;12.47;74.36;100419.63;5100262;27;45364;-59
2022/12/29 06:59:40;;;;;;;;;2.50;1.00;;;;;12.42;74.17;100428.72;5099691;27;45460;-59
2022/12/29 07:02:06;;;;;;;;;2.00;0.25;;;;;12.37;74.47;100430.72;5100052;27;45446;-59
2022/12/29 07:04:31;;;;;;;;;2.00;0.25;;;;;12.41;74.47;100439.50;5099358;27;45318;-59
2022/12/29 07:06:56;;;;;;;;;0.00;0.00;;;;;12.40;74.79;100441.31;5100059;27;45288;-59
2022/12/29 07:09:22;;;;;;;;;0.50;0.50;;;;;12.38;74.37;100434.28;5117169;27;45386;-59
2022/12/29 07:11:47;;;;;;;;;2.00;0.50;;;;;12.41;74.44;100435.03;5120237;27;45393;-59
2022/12/29 07:14:13;;;;;;;;;1.75;1.00;;;;;12.41;74.41;100429.66;5120530;27;45369;-59
2022/12/29 07:16:38;;;;;;;;;1.00;0.00;;;;;12.44;74.44;100431.31;5120478;27;45466;-59
2022/12/29 07:19:04;;;;;;;;;2.00;0.00;;;;;12.44;74.20;100420.63;5120317;27;45455;-59
2022/12/29 07:21:30;;;;;;;;;0.00;0.00;;;;;12.47;74.34;100436.53;5120370;27;45429;-59
2022/12/29 07:23:55;;;;;;;;;0.75;0.00;;;;;12.46;74.20;100436.59;5120134;27;45263;-59
2022/12/29 07:26:21;;;;;;;;;2.50;0.00;;;;;12.46;74.09;100450.00;5120540;27;45294;-59
2022/12/29 07:28:46;;;;;;;;;0.75;0.75;;;;;12.47;74.32;100449.94;5120400;27;45318;-59
2022/12/29 07:31:18;;;;;;;;;5.00;0.00;;;;;12.47;74.03;100451.75;5116279;27;45256;-59
2022/12/29 07:33:44;;;;;;;;;0.00;0.00;;;;;12.46;73.90;100450.84;5099504;27;45438;-59
2022/12/29 07:36:11;;;;;;;;;0.00;0.00;;;;;12.45;74.68;100461.66;5099824;27;45520;-59
2022/12/29 07:38:36;;;;;;;;;3.00;0.75;;;;;12.45;73.86;100461.66;5099475;27;45295;-59
2022/12/29 07:41:01;;;;;;;;;0.00;0.00;;;;;12.45;74.32;100459.84;5081070;27;46978;-59
2022/12/29 07:43:27;;;;;;;;;1.00;1.00;;;;;12.45;74.20;100473.22;5081257;27;45351;-59
2022/12/29 07:45:52;;;;;;;;;1.00;1.00;;;;;12.44;73.95;100471.47;5099489;27;45523;-59
2022/12/29 07:48:18;;;;;;;;;2.00;0.00;;;;;12.43;74.12;100467.06;5099439;27;45436;-59
2022/12/29 07:50:43;;;;;;;;;0.00;0.00;;;;;12.46;74.19;100468.72;5099272;27;46163;-59
2022/12/29 07:53:08;;;;;;;;;3.00;1.25;;;;;12.44;74.02;100470.63;5099079;27;45344;-59
2022/12/29 07:55:34;;;;;;;;;0.75;0.00;;;;;12.42;73.94;100466.19;5099660;27;45414;-59
2022/12/29 07:57:59;;;;;;;;;0.25;0.00;;;;;12.43;74.03;100485.81;5099160;27;45373;-59
2022/12/29 08:00:25;;;;;;;;;2.00;1.00;;;;;12.42;73.60;100490.28;5098946;27;45466;-59
2022/12/29 08:02:50;;;;;;;;;5.75;0.25;;;;;12.38;73.85;100495.84;5099100;27;45324;-59
2022/12/29 08:05:16;;;;;;;;;1.50;0.25;;;;;12.38;73.88;100503.88;5099487;27;45466;-59
2022/12/29 08:07:46;;;;;;;;;1.00;1.00;;;;;12.40;73.81;100510.03;5101690;27;45367;-59
2022/12/29 08:10:11;;;;;;;;;2.00;1.00;;;;;12.40;73.48;100520.75;5119723;27;45330;-59
2022/12/29 08:12:40;;;;;;;;;0.75;0.00;;;;;12.35;73.55;100514.72;5119771;27;45473;-59
2022/12/29 08:15:07;;;;;;;;;2.00;0.00;;;;;12.37;73.49;100513.69;5119850;27;45370;-59
2022/12/29 08:17:33;;;;;;;;;1.25;0.00;;;;;12.36;73.53;100511.09;5121528;27;45451;-59
2022/12/29 08:19:58;;;;;;;;;1.00;0.00;;;;;12.35;73.42;100515.59;5104714;27;45885;-60
2022/12/29 08:22:24;;;;;;;;;3.00;0.00;;;;;12.35;73.36;100520.94;5123087;27;45339;-60
2022/12/29 08:24:50;;;;;;;;;5.00;1.00;;;;;12.34;73.50;100516.50;5123242;27;45240;-60
2022/12/29 08:27:15;;;;;;;;;2.00;0.50;;;;;12.33;73.04;100528.16;5123201;27;45337;-59
2022/12/29 08:29:41;;;;;;;;;3.00;2.00;;;;;12.36;73.23;100532.50;5104344;27;48255;-59
2022/12/29 08:32:06;;;;;;;;;2.00;0.00;;;;;12.35;73.33;100533.47;5111415;27;45309;-59
2022/12/29 08:34:32;;;;;;;;;2.50;2.00;;;;;12.40;72.91;100534.13;5102230;27;45392;-59
2022/12/29 08:36:58;;;;;;;;;1.25;0.50;;;;;12.38;72.87;100536.88;5102393;27;45256;-59
2022/12/29 08:39:23;;;;;;;;;5.25;1.00;;;;;12.37;72.87;100544.97;5102296;27;46459;-59
2022/12/29 08:41:48;;;;;;;;;2.75;1.00;;;;;12.37;72.79;100553.84;5102038;27;45385;-59
2022/12/29 08:44:14;;;;;;;;;2.75;1.00;;;;;12.35;72.91;100550.38;5102383;27;45423;-59
2022/12/29 08:46:39;;;;;;;;;3.50;0.75;;;;;12.35;72.96;100560.22;5101867;27;45499;-59
2022/12/29 08:49:04;;;;;;;;;1.00;1.00;;;;;12.30;73.00;100551.53;5102161;27;45372;-59
2022/12/29 08:51:30;;;;;;;;;1.00;1.00;;;;;12.34;72.74;100564.69;5101910;27;45377;-60
2022/12/29 08:53:55;;;;;;;;;1.75;1.00;;;;;12.34;72.53;100569.19;5102038;27;45353;-59
2022/12/29 08:56:21;;;;;;;;;4.25;1.50;;;;;12.36;72.50;100567.31;5101852;27;45316;-59
2022/12/29 08:58:46;;;;;;;;;1.00;1.00;;;;;12.34;72.46;100566.50;5101978;27;45518;-59
2022/12/29 09:01:11;;;;;;;;;1.00;1.00;;;;;12.35;72.56;100573.63;5101659;27;45361;-59
2022/12/29 09:03:37;;;;;;;;;2.25;1.25;;;;;12.36;72.41;100572.66;5102186;27;45399;-59
2022/12/29 09:06:03;;;;;;;;;0.50;0.50;;;;;12.35;72.67;100571.78;5101695;27;45613;-59
2022/12/29 09:08:28;;;;;;;;;0.50;0.50;;;;;12.37;72.67;100577.09;5110869;27;45563;-59
2022/12/29 09:10:53;;;;;;;;;1.00;1.00;;;;;12.40;72.25;100582.31;5102815;27;45293;-59
2022/12/29 09:13:19;;;;;;;;;3.00;2.00;;;;;12.39;72.26;100586.78;5122601;27;45373;-59
2022/12/29 09:15:44;;;;;;;;;1.00;1.00;;;;;12.36;72.39;100580.69;5122062;27;45267;-59
2022/12/29 09:18:11;;;;;;;;;2.00;0.00;;;;;12.41;72.55;100589.38;5122390;27;46294;-59
2022/12/29 09:20:37;;;;;;;;;3.00;1.50;;;;;12.33;72.18;100573.66;5122335;27;45240;-59
2022/12/29 09:23:03;;;;;;;;;1.25;1.00;;;;;12.38;71.98;100593.09;5122406;27;45353;-59
2022/12/29 09:25:28;;;;;;;;;1.75;1.00;;;;;12.41;71.86;100594.75;5122049;27;45433;-59
2022/12/29 09:27:54;;;;;;;;;5.00;1.00;;;;;12.41;72.38;100600.09;5121802;27;45516;-59
2022/12/29 09:30:21;;;;;;;;;1.75;1.50;;;;;12.39;72.27;100599.28;5121913;27;45395;-59
2022/12/29 09:32:47;;;;;;;;;1.75;1.75;;;;;12.42;72.47;100604.53;5104720;27;45415;-59
2022/12/29 09:35:15;;;;;;;;;2.00;1.00;;;;;12.40;72.48;100599.22;5101394;27;45370;-59
2022/12/29 09:37:40;;;;;;;;;1.50;1.00;;;;;12.41;72.25;100610.81;5101122;27;46187;-59
2022/12/29 09:40:07;;;;;;;;;3.50;1.00;;;;;12.39;72.25;100610.88;5101245;27;45257;-59
2022/12/29 09:42:46;;;;;;;;;3.00;1.50;;;;;12.41;72.39;100613.47;5101449;27;45314;-59
2022/12/29 09:45:18;;;;;;;;;4.00;3.00;;;;;12.40;72.33;100612.63;5101023;27;45427;-60
2022/12/29 09:47:45;;;;;;;;;2.25;0.50;;;;;12.39;72.27;100616.22;5101285;27;45512;-59
2022/12/29 09:50:24;;;;;;;;;1.00;1.00;;;;;12.40;72.15;100623.31;5100952;27;45649;-59
2022/12/29 09:53:02;;;;;;;;;2.00;1.00;;;;;12.38;72.19;100617.19;5100980;27;45335;-59
2022/12/29 09:55:39;;;;;;;;;3.00;1.50;;;;;12.38;72.29;100621.66;5101158;27;45359;-59
2022/12/29 09:58:21;;;;;;;;;1.50;1.00;;;;;12.38;71.98;100621.66;5100954;27;45445;-59
2022/12/29 10:01:00;;;;;;;;;0.25;0.25;;;;;12.35;72.00;100648.56;5100879;27;45629;-59
2022/12/29 10:03:40;;;;;;;;;1.75;1.00;;;;;12.32;71.80;100633.47;5101203;27;45335;-59
2022/12/29 10:06:14;;;;;;;;;1.75;1.00;;;;;12.34;72.04;100644.13;5082140;27;45584;-59
2022/12/29 10:08:39;;;;;;;;;1.75;1.25;;;;;12.37;71.85;100652.03;5111647;27;45310;-59
2022/12/29 10:11:39;;;;;;;;;2.00;1.00;;;;;12.38;71.75;100645.75;5121399;27;45286;-59
2022/12/29 10:14:28;;;;;;;;;2.00;2.00;;;;;12.35;71.75;100636.03;5121453;27;45371;-59
2022/12/29 10:17:24;;;;;;;;;2.50;1.00;;;;;12.42;71.75;100644.69;5121434;27;45666;-59
2022/12/29 10:20:18;;;;;;;;;1.50;0.25;;;;;12.43;71.72;100638.41;5121413;27;45380;-59
2022/12/29 10:23:22;;;;;;;;;1.00;1.00;;;;;12.43;71.40;100625.03;5107128;27;45276;-60
2022/12/29 10:25:47;;;;;;;;;1.00;1.00;;;;;12.41;71.56;100640.25;5072439;27;45527;-59
2022/12/29 10:28:45;;;;;;;;;1.00;1.00;;;;;12.41;71.47;100648.28;5121256;27;45471;-59
2022/12/29 10:31:19;;;;;;;;;1.50;0.25;;;;;12.40;71.66;100646.56;5075161;27;46525;-59
2022/12/29 10:33:48;;;;;;;;;2.25;0.75;;;;;12.40;71.31;100642.06;5100327;27;45484;-59
2022/12/29 10:36:34;;;;;;;;;2.50;1.50;;;;;12.44;71.37;100634.78;5100634;27;45397;-59
2022/12/29 10:39:21;;;;;;;;;3.00;0.75;;;;;12.46;71.11;100640.94;5100013;27;45397;-59
2022/12/29 10:41:57;;;;;;;;;2.50;0.50;;;;;12.45;70.93;100633.00;5100299;27;45635;-59
2022/12/29 10:44:28;;;;;;;;;1.25;1.00;;;;;12.42;70.71;100629.47;5100111;27;45339;-59
2022/12/29 10:47:00;;;;;;;;;2.00;0.50;;;;;12.46;70.55;100632.91;5100647;27;45675;-59
2022/12/29 10:49:28;;;;;;;;;0.75;0.25;;;;;12.46;70.58;100634.72;5100229;27;45525;-59
2022/12/29 10:51:58;;;;;;;;;4.00;0.75;;;;;12.44;70.53;100626.75;5100253;27;45525;-59
2022/12/29 10:54:32;;;;;;;;;3.00;2.00;;;;;12.53;70.13;100641.53;5099899;27;45354;-59
2022/12/29 10:57:11;;;;;;;;;2.00;0.25;;;;;12.57;70.65;100640.50;5100121;27;45464;-59
2022/12/29 10:59:37;;;;;;;;;1.25;0.00;;;;;12.50;69.94;100621.13;5099633;27;45426;-59
2022/12/29 11:02:11;;;;;;;;;1.00;1.00;;;;;12.57;70.00;100636.00;5099992;27;46103;-59
2022/12/29 11:04:57;;;;;;;;;3.75;1.00;;;;;12.58;69.73;100645.78;5099855;27;45326;-59
2022/12/29 11:07:23;;;;;;;;;3.50;1.00;;;;;12.61;69.99;100639.41;5100237;27;45413;-59
2022/12/29 11:09:48;;;;;;;;;1.75;1.75;;;;;12.60;69.75;100643.03;5120731;27;45435;-59
2022/12/29 11:12:31;;;;;;;;;4.75;1.00;;;;;12.60;69.71;100640.38;5120273;27;45420;-59
2022/12/29 11:15:14;;;;;;;;;2.50;1.25;;;;;12.61;69.75;100647.44;5120454;27;45838;-59
2022/12/29 11:17:51;;;;;;;;;2.25;0.75;;;;;12.57;69.60;100637.81;5120134;27;45608;-59
2022/12/29 11:20:37;;;;;;;;;4.00;1.00;;;;;12.67;69.75;100651.69;5120555;27;45313;-59
2022/12/29 11:23:04;;;;;;;;;2.00;1.25;;;;;12.68;69.74;100653.41;5120227;27;45460;-59
2022/12/29 11:25:30;;;;;;;;;1.00;1.00;;;;;12.70;69.59;100646.22;5120233;27;45623;-59
2022/12/29 11:28:00;;;;;;;;;2.50;0.50;;;;;12.72;69.46;100652.38;5120478;27;45461;-59
2022/12/29 11:30:28;;;;;;;;;1.00;0.00;;;;;12.67;69.32;100635.63;5119937;27;45623;-60
2022/12/29 11:32:56;;;;;;;;;3.25;1.50;;;;;12.65;69.73;100642.84;5101718;27;45475;-59
2022/12/29 11:35:38;;;;;;;;;2.25;0.75;;;;;12.74;69.22;100643.31;5099626;27;45491;-59
2022/12/29 11:38:05;;;;;;;;;5.50;2.25;;;;;12.71;68.96;100640.78;5099778;27;45464;-59
2022/12/29 11:40:31;;;;;;;;;3.25;3.00;;;;;12.72;68.74;100641.66;5099427;27;45373;-59
2022/12/29 11:43:04;;;;;;;;;2.00;1.00;;;;;12.76;68.70;100643.25;5099367;27;46765;-59
2022/12/29 11:45:34;;;;;;;;;2.50;1.00;;;;;12.78;68.92;100646.75;5099342;27;45613;-59
2022/12/29 11:48:24;;;;;;;;;3.25;2.00;;;;;12.77;68.21;100651.22;5099436;27;45361;-59
2022/12/29 11:51:01;;;;;;;;;3.75;1.25;;;;;12.79;68.43;100641.31;5100221;27;45417;-60
2022/12/29 11:53:28;;;;;;;;;1.50;0.00;;;;;12.81;68.55;100637.69;5102916;27;46344;-59
2022/12/29 11:56:00;;;;;;;;;3.00;2.00;;;;;12.82;68.29;100639.44;5103084;27;45427;-59
2022/12/29 11:58:36;;;;;;;;;3.00;2.00;;;;;12.82;67.83;100626.06;5084672;27;45455;-59
2022/12/29 12:01:26;;;;;;;;;4.25;1.50;;;;;12.83;67.68;100612.59;5102684;27;45327;-59
2022/12/29 12:04:16;;;;;;;;;2.00;2.00;;;;;12.87;67.62;100608.84;5102820;27;45331;-59
2022/12/29 12:06:49;;;;;;;;;3.25;0.50;;;;;12.90;67.35;100602.47;5084433;27;45386;-59
2022/12/29 12:09:25;;;;;;;;;2.00;1.75;;;;;12.90;67.07;100606.03;5098139;27;45435;-60